Disney Magic — C6PT7 — position and weather

sailwx.info

Track history (hours):
 
Tides and Currents Weather Stations Pressure Air Temp Water Temp Dewpoint Dewpoint Depression Visibility Wind Speed Wind Dir Waves Ship Positions

Disney Magic

Last reported at 2017-Sep-22 01:52 UTC. Time now 2017-Sep-26 05:56 UTC.
Position N 38°01' W 030°23'.

Type: Passenger vessel. MMSI: 308516000.

Date/timePositionNaut miles runAvg speedWind from/ knotsBaromVisibWave heightAir tempDewpointWater temp
2017-Sep-22 01:52N 38°01' W 030°23'720.8
2017-Sep-22 01:30N 38°00' W 030°14'1020.8
2017-Sep-22 01:00N 37°59' W 030°00'1020.9
2017-Sep-22 00:31N 37°59' W 029°47'1020.8
2017-Sep-22 00:00N 37°58' W 029°34'1020.8
2017-Sep-21 23:30N 37°58' W 029°21'1020.6
2017-Sep-21 23:00N 37°58' W 029°08'1121.0
2017-Sep-21 22:30N 37°56' W 028°55'1020.7
2017-Sep-21 22:00N 37°54' W 028°42'1020.9
2017-Sep-21 21:30N 37°53' W 028°29'1020.7
2017-Sep-21 21:00N 37°52' W 028°16'1020.3
2017-Sep-21 20:30N 37°51' W 028°03'1020.4
2017-Sep-21 20:00N 37°51' W 027°50'1020.5
2017-Sep-21 19:30N 37°50' W 027°37'1020.9
2017-Sep-21 19:00N 37°49' W 027°24'1121.1
2017-Sep-21 18:30N 37°48' W 027°11'1120.9
2017-Sep-21 18:00N 37°47' W 026°57'1020.7
2017-Sep-21 17:30N 37°46' W 026°44'1020.8
2017-Sep-21 17:00N 37°45' W 026°31'1021.0
2017-Sep-21 16:30N 37°44' W 026°18'1020.6
2017-Sep-21 16:00N 37°43' W 026°05'1020.9
2017-Sep-21 15:30N 37°41' W 025°52'919.0
2017-Sep-21 15:01N 37°42' W 025°40'2 3.6
2017-Sep-21 14:28N 37°44' W 025°40'0 0.0
2017-Sep-21 14:00N 37°44' W 025°40'0 0.0
2017-Sep-21 13:31N 37°44' W 025°40'0 0.0
2017-Sep-21 13:00N 37°44' W 025°40'0 0.0
2017-Sep-21 12:30N 37°44' W 025°40'0 0.0
2017-Sep-21 12:00N 37°44' W 025°40'0 0.0
2017-Sep-21 11:31N 37°44' W 025°40'0 0.0
2017-Sep-21 11:00N 37°44' W 025°40'0 0.0
2017-Sep-21 10:30N 37°44' W 025°40'0 0.0
2017-Sep-21 10:00N 37°44' W 025°40'0 0.0
2017-Sep-21 09:28N 37°44' W 025°40'0 0.0
2017-Sep-21 09:00N 37°44' W 025°40'0 0.0
2017-Sep-21 08:28N 37°44' W 025°40'0 0.0
2017-Sep-21 08:01N 37°44' W 025°40'0 0.1
2017-Sep-21 07:30N 37°44' W 025°40'1 2.3
2017-Sep-21 07:00N 37°44' W 025°38'612.4
2017-Sep-21 06:30N 37°40' W 025°32'713.4
2017-Sep-21 06:00N 37°40' W 025°23'815.6
2017-Sep-21 05:30N 37°40' W 025°13'917.4
2017-Sep-21 05:00N 37°40' W 025°02'816.9
2017-Sep-21 04:30N 37°41' W 024°52'917.2
2017-Sep-21 04:00N 37°41' W 024°41'816.4
2017-Sep-21 03:30N 37°42' W 024°31'815.8
2017-Sep-21 03:00N 37°42' W 024°21'816.2
2017-Sep-21 02:30N 37°43' W 024°11'816.3
2017-Sep-21 02:00N 37°43' W 024°00'816.3
2017-Sep-21 01:30N 37°44' W 023°50'918.1
2017-Sep-21 01:00N 37°45' W 023°39'41820.8
2017-Sep-20 04:55N 38°12' W 014°49'921.3
2017-Sep-20 04:31N 38°13' W 014°38'3821.3
2017-Sep-20 02:42N 38°16' W 013°49'421.1
2017-Sep-20 02:30N 38°16' W 013°44'1221.1
2017-Sep-20 01:58N 38°17' W 013°29'1021.1
2017-Sep-20 01:31N 38°17' W 013°17'3621.2
2017-Sep-19 23:48N 38°20' W 012°31'2920.9
2017-Sep-19 22:24N 38°22' W 011°54'920.9
2017-Sep-19 21:57N 38°22' W 011°42'1121.2
2017-Sep-19 21:25N 38°23' W 011°28'1720.8
2017-Sep-19 20:37N 38°24' W 011°06'620.7
2017-Sep-19 20:21N 38°25' W 010°59'720.8
2017-Sep-19 20:01N 38°25' W 010°50'1120.6
2017-Sep-19 19:28N 38°26' W 010°36'1020.6
2017-Sep-19 19:01N 38°27' W 010°24'1020.9
2017-Sep-19 18:31N 38°30' W 010°11'1020.7
2017-Sep-19 18:01N 38°30' W 009°58'1020.7
2017-Sep-19 17:30N 38°32' W 009°45'1121.3
2017-Sep-19 17:01N 38°35' W 009°32'918.7
2017-Sep-19 16:31N 38°38' W 009°21'712.7
2017-Sep-19 15:59N 38°41' W 009°13'4 8.6
2017-Sep-19 15:30N 38°42' W 009°08'1 1.1
2017-Sep-19 15:01N 38°43' W 009°08'0 0.0
2017-Sep-19 14:31N 38°43' W 009°08'0 0.0
2017-Sep-19 13:58N 38°43' W 009°08'0 0.0
2017-Sep-19 13:31N 38°43' W 009°08'0 0.0
2017-Sep-19 13:01N 38°43' W 009°08'0 0.0
2017-Sep-19 12:28N 38°43' W 009°08'0 0.0
2017-Sep-19 11:58N 38°43' W 009°08'0 0.0
2017-Sep-19 11:31N 38°43' W 009°08'0 0.0
2017-Sep-19 11:01N 38°43' W 009°08'0 0.0
2017-Sep-19 10:31N 38°43' W 009°08'0 0.0
2017-Sep-19 10:01N 38°43' W 009°08'0 0.0
2017-Sep-19 09:28N 38°43' W 009°08'0 0.1
2017-Sep-19 09:01N 38°43' W 009°08'0 0.0
2017-Sep-19 08:28N 38°43' W 009°08'0 0.0
2017-Sep-19 08:01N 38°43' W 009°08'0 0.0
2017-Sep-19 07:30N 38°43' W 009°08'1 2.3
2017-Sep-19 07:00N 38°42' W 009°09'3 6.3
2017-Sep-19 06:30N 38°41' W 009°13'4 7.5
2017-Sep-19 06:01N 38°41' W 009°17'713.2
2017-Sep-19 05:30N 38°36' W 009°23'3 6.9
2017-Sep-19 05:00N 38°33' W 009°24'612.6
2017-Sep-19 04:30N 38°26' W 009°24'816.7
2017-Sep-19 04:00N 38°18' W 009°23'917.3
2017-Sep-19 03:30N 38°09' W 009°23'917.1
2017-Sep-19 03:01N 38°01' W 009°23'917.2
2017-Sep-19 02:30N 37°52' W 009°23'917.3
2017-Sep-19 02:00N 37°44' W 009°23'917.2
2017-Sep-19 01:31N 37°35' W 009°23'917.1
2017-Sep-19 01:00N 37°26' W 009°22'917.7
2017-Sep-19 00:30N 37°17' W 009°22'1020.7
2017-Sep-19 00:00N 37°07' W 009°22'1120.4
2017-Sep-18 23:27N 36°56' W 009°20'920.1
2017-Sep-18 23:00N 36°48' W 009°15'1220.0
2017-Sep-18 22:23N 36°43' W 009°01'820.4
2017-Sep-18 22:00N 36°42' W 008°51'1020.3
2017-Sep-18 21:30N 36°42' W 008°39'1020.5
2017-Sep-18 21:00N 36°41' W 008°26'1020.4
2017-Sep-18 20:30N 36°40' W 008°14'1020.2
2017-Sep-18 20:00N 36°40' W 008°01'1020.0
2017-Sep-18 19:30N 36°40' W 007°48'5119.8
2017-Sep-18 16:55N 36°36' W 006°45'69 3.4
2017-Sep-17 20:25N 35°57' W 005°34'615.2
2017-Sep-17 20:00N 35°59' W 005°27'5 9.1
2017-Sep-17 19:30N 36°00' W 005°22'4 7.9
2017-Sep-17 19:00N 36°01' W 005°17'21618.9
2017-Sep-17 07:36N 37°06' W 001°01'421.2
2017-Sep-17 07:25N 37°09' W 000°57'921.3
2017-Sep-17 06:59N 37°14' W 000°47'1021.4
2017-Sep-17 06:30N 37°20' W 000°37'1121.5
2017-Sep-17 06:00N 37°26' W 000°26'1020.9
2017-Sep-17 05:30N 37°34' W 000°17'6621.0
2017-Sep-17 02:22N 38°29' E 000°30'820.7
2017-Sep-17 01:59N 38°35' E 000°35'3321.0
2017-Sep-17 00:24N 39°06' E 000°51'2521.1
2017-Sep-16 23:13N 39°29' E 001°05'621.2
2017-Sep-16 22:57N 39°34' E 001°08'1021.2
2017-Sep-16 22:30N 39°42' E 001°13'1121.1
2017-Sep-16 22:00N 39°52' E 001°19'1020.8
2017-Sep-16 21:30N 40°01' E 001°25'1020.7
2017-Sep-16 21:00N 40°10' E 001°31'1020.7
2017-Sep-16 20:30N 40°20' E 001°37'1020.5
2017-Sep-16 20:00N 40°29' E 001°42'1020.5
2017-Sep-16 19:30N 40°38' E 001°48'1020.6
2017-Sep-16 19:00N 40°48' E 001°54'1020.7
2017-Sep-16 18:30N 40°57' E 001°59'1020.4
2017-Sep-16 18:00N 41°06' E 002°05'1118.3
2017-Sep-16 17:24N 41°17' E 002°11'2 0.1
2017-Sep-16 02:38N 41°19' E 002°10'1 8.4
2017-Sep-16 02:30N 41°18' E 002°11'1012.1
2017-Sep-16 01:43N 41°12' E 002°22'12917.7
2017-Sep-15 18:26N 42°39' E 004°30'921.8
2017-Sep-15 18:00N 42°46' E 004°38'1121.4
2017-Sep-15 17:31N 42°53' E 004°48'1121.4
2017-Sep-15 17:00N 43°02' E 004°57'1121.6
2017-Sep-15 16:31N 43°10' E 005°06'1019.4
2017-Sep-15 16:01N 43°18' E 005°13'510.8
2017-Sep-15 15:30N 43°21' E 005°20'0 0.1
2017-Sep-15 14:46N 43°21' E 005°20'0 0.0
2017-Sep-15 14:07N 43°21' E 005°20'0 0.0
2017-Sep-15 13:46N 43°21' E 005°20'0 0.0
2017-Sep-15 13:22N 43°21' E 005°20'0 0.0
2017-Sep-15 12:52N 43°21' E 005°20'0 0.0
2017-Sep-15 12:04N 43°21' E 005°20'0 0.0
2017-Sep-15 11:49N 43°21' E 005°20'0 0.0
2017-Sep-15 11:22N 43°21' E 005°20'0 0.0
2017-Sep-15 10:52N 43°21' E 005°20'0 0.0
2017-Sep-15 10:22N 43°21' E 005°20'0 0.0
2017-Sep-15 09:55N 43°21' E 005°20'0 0.0
2017-Sep-15 09:25N 43°21' E 005°20'0 0.0
2017-Sep-15 08:55N 43°21' E 005°20'0 0.0
2017-Sep-15 08:25N 43°21' E 005°20'0 0.0
2017-Sep-15 07:55N 43°21' E 005°20'0 0.0
2017-Sep-15 07:28N 43°21' E 005°20'0 0.0
2017-Sep-15 06:43N 43°21' E 005°20'0 0.0
2017-Sep-15 06:13N 43°21' E 005°20'0 0.0
2017-Sep-15 05:58N 43°21' E 005°20'0 0.0
2017-Sep-15 05:28N 43°21' E 005°20'0 0.0
2017-Sep-15 05:00N 43°21' E 005°20'1 2.1
2017-Sep-15 04:31N 43°21' E 005°19'4 7.5
2017-Sep-15 04:00N 43°19' E 005°15'3 6.8
2017-Sep-15 03:30N 43°16' E 005°11'4 7.5
2017-Sep-15 03:00N 43°13' E 005°10'4 7.5
2017-Sep-15 02:30N 43°09' E 005°10'4 7.7
2017-Sep-15 02:00N 43°05' E 005°10'4 8.0
2017-Sep-15 01:30N 43°01' E 005°11'4 7.9
2017-Sep-15 01:00N 42°58' E 005°14'5 9.0
2017-Sep-15 00:31N 42°56' E 005°19'5 9.0
2017-Sep-15 00:00N 42°53' E 005°24'5 9.1
2017-Sep-14 23:30N 42°51' E 005°30'5 9.1
2017-Sep-14 23:00N 42°49' E 005°35'5 9.0
2017-Sep-14 22:30N 42°47' E 005°41'4 8.7
2017-Sep-14 22:01N 42°46' E 005°46'7 7.0
2017-Sep-14 21:00N 42°44' E 005°56'8 3.5
2017-Sep-14 18:48N 42°43' E 006°06'2 7.7
2017-Sep-14 18:30N 42°44' E 006°09'4 7.8
2017-Sep-14 18:00N 42°45' E 006°14'4 7.3
2017-Sep-14 17:30N 42°45' E 006°19'4 7.2
2017-Sep-14 17:00N 42°45' E 006°24'4 7.4
2017-Sep-14 16:27N 42°46' E 006°30'25 7.4
2017-Sep-14 13:05N 42°52' E 007°02'1 7.2
2017-Sep-14 12:58N 42°52' E 007°03'3 7.2
2017-Sep-14 12:30N 42°53' E 007°07'4 7.3
2017-Sep-14 11:59N 42°55' E 007°12'4 7.2
2017-Sep-14 11:29N 42°56' E 007°17'4 7.3
2017-Sep-14 10:58N 42°57' E 007°22'3 7.3
2017-Sep-14 10:30N 42°58' E 007°26'4 7.2
2017-Sep-14 10:00N 42°59' E 007°31'4 7.2
2017-Sep-14 09:29N 43°00' E 007°36'52 7.5
2017-Sep-14 02:31N 43°16' E 008°44'0 7.4
2017-Sep-14 02:30N 43°16' E 008°44'4 7.5
2017-Sep-14 01:59N 43°17' E 008°49'4 7.4
2017-Sep-14 01:30N 43°18' E 008°54'4 7.6
2017-Sep-14 01:00N 43°20' E 008°59'4 8.5
2017-Sep-14 00:30N 43°21' E 009°04'4 8.2
2017-Sep-14 00:00N 43°22' E 009°10'4 7.6
2017-Sep-13 23:30N 43°23' E 009°15'4 7.5
2017-Sep-13 23:00N 43°24' E 009°20'4 7.2
2017-Sep-13 22:30N 43°25' E 009°24'4 8.8
2017-Sep-13 22:00N 43°26' E 009°30'5 9.4
2017-Sep-13 21:30N 43°28' E 009°36'5 9.4
2017-Sep-13 21:00N 43°29' E 009°42'5 9.6
2017-Sep-13 20:30N 43°31' E 009°49'5 9.7
2017-Sep-13 20:00N 43°32' E 009°55'5 9.4
2017-Sep-13 19:30N 43°31' E 010°02'5 9.7
2017-Sep-13 19:00N 43°30' E 010°08'611.3
2017-Sep-13 18:30N 43°32' E 010°15'2 4.9
2017-Sep-13 18:00N 43°33' E 010°18'0 0.0
2017-Sep-13 17:27N 43°33' E 010°18'0 0.0
2017-Sep-13 16:57N 43°33' E 010°18'0 0.0
2017-Sep-13 16:30N 43°33' E 010°18'0 0.0
2017-Sep-13 15:57N 43°33' E 010°18'0 0.0
2017-Sep-13 15:30N 43°33' E 010°18'0 0.0
2017-Sep-13 15:00N 43°33' E 010°18'0 0.0
2017-Sep-13 14:30N 43°33' E 010°18'0 0.0
2017-Sep-13 14:00N 43°33' E 010°18'0 0.0
2017-Sep-13 13:30N 43°33' E 010°18'0 0.0
2017-Sep-13 13:00N 43°33' E 010°18'0 0.0
2017-Sep-13 12:30N 43°33' E 010°18'0 0.0
2017-Sep-13 12:00N 43°33' E 010°18'0 0.0
2017-Sep-13 11:30N 43°33' E 010°18'0 0.0
2017-Sep-13 10:54N 43°33' E 010°18'0 0.0
2017-Sep-13 10:30N 43°33' E 010°18'0 0.0
2017-Sep-13 10:00N 43°33' E 010°18'0 0.0
2017-Sep-13 09:30N 43°33' E 010°18'0 0.0
2017-Sep-13 09:00N 43°33' E 010°18'0 0.0
2017-Sep-13 08:30N 43°33' E 010°18'0 0.0
2017-Sep-13 08:00N 43°33' E 010°18'0 0.0
2017-Sep-13 07:30N 43°33' E 010°18'0 0.0
2017-Sep-13 07:00N 43°33' E 010°18'0 0.0
2017-Sep-13 06:24N 43°33' E 010°18'0 0.0
2017-Sep-13 06:00N 43°33' E 010°18'0 0.0
2017-Sep-13 05:30N 43°33' E 010°18'0 0.0
2017-Sep-13 05:00N 43°33' E 010°18'0 0.1
2017-Sep-13 04:27N 43°33' E 010°18'1 1.9
2017-Sep-13 04:00N 43°33' E 010°17'4 8.9
2017-Sep-13 03:31N 43°29' E 010°13'815.3
2017-Sep-13 03:01N 43°22' E 010°11'815.3
2017-Sep-13 02:31N 43°14' E 010°08'815.3
2017-Sep-13 02:01N 43°07' E 010°05'815.2
2017-Sep-13 01:30N 42°60' E 010°02'5713.8
2017-Sep-12 21:24N 42°04' E 010°17'  
Track history (hours):
 
Tides and Currents Weather Stations Pressure Air Temp Water Temp Dewpoint Dewpoint Depression Visibility Wind Speed Wind Dir Waves Ship Positions

Disney Magic

Last reported at 2017-Sep-22 01:52 UTC. Time now 2017-Sep-26 05:56 UTC.
Position N 38°01' W 030°23'.

Type: Passenger vessel. MMSI: 308516000.

Date/timePositionNaut miles runAvg speedWind from/ knotsBaromVisibWave heightAir tempDewpointWater temp
2017-Sep-22 01:52N 38°01' W 030°23'720.8
2017-Sep-22 01:30N 38°00' W 030°14'1020.8
2017-Sep-22 01:00N 37°59' W 030°00'1020.9
2017-Sep-22 00:31N 37°59' W 029°47'1020.8
2017-Sep-22 00:00N 37°58' W 029°34'1020.8
2017-Sep-21 23:30N 37°58' W 029°21'1020.6
2017-Sep-21 23:00N 37°58' W 029°08'1121.0
2017-Sep-21 22:30N 37°56' W 028°55'1020.7
2017-Sep-21 22:00N 37°54' W 028°42'1020.9
2017-Sep-21 21:30N 37°53' W 028°29'1020.7
2017-Sep-21 21:00N 37°52' W 028°16'1020.3
2017-Sep-21 20:30N 37°51' W 028°03'1020.4
2017-Sep-21 20:00N 37°51' W 027°50'1020.5
2017-Sep-21 19:30N 37°50' W 027°37'1020.9
2017-Sep-21 19:00N 37°49' W 027°24'1121.1
2017-Sep-21 18:30N 37°48' W 027°11'1120.9
2017-Sep-21 18:00N 37°47' W 026°57'1020.7
2017-Sep-21 17:30N 37°46' W 026°44'1020.8
2017-Sep-21 17:00N 37°45' W 026°31'1021.0
2017-Sep-21 16:30N 37°44' W 026°18'1020.6
2017-Sep-21 16:00N 37°43' W 026°05'1020.9
2017-Sep-21 15:30N 37°41' W 025°52'919.0
2017-Sep-21 15:01N 37°42' W 025°40'2 3.6
2017-Sep-21 14:28N 37°44' W 025°40'0 0.0
2017-Sep-21 14:00N 37°44' W 025°40'0 0.0
2017-Sep-21 13:31N 37°44' W 025°40'0 0.0
2017-Sep-21 13:00N 37°44' W 025°40'0 0.0
2017-Sep-21 12:30N 37°44' W 025°40'0 0.0
2017-Sep-21 12:00N 37°44' W 025°40'0 0.0
2017-Sep-21 11:31N 37°44' W 025°40'0 0.0
2017-Sep-21 11:00N 37°44' W 025°40'0 0.0
2017-Sep-21 10:30N 37°44' W 025°40'0 0.0
2017-Sep-21 10:00N 37°44' W 025°40'0 0.0
2017-Sep-21 09:28N 37°44' W 025°40'0 0.0
2017-Sep-21 09:00N 37°44' W 025°40'0 0.0
2017-Sep-21 08:28N 37°44' W 025°40'0 0.0
2017-Sep-21 08:01N 37°44' W 025°40'0 0.1
2017-Sep-21 07:30N 37°44' W 025°40'1 2.3
2017-Sep-21 07:00N 37°44' W 025°38'612.4
2017-Sep-21 06:30N 37°40' W 025°32'713.4
2017-Sep-21 06:00N 37°40' W 025°23'815.6
2017-Sep-21 05:30N 37°40' W 025°13'917.4
2017-Sep-21 05:00N 37°40' W 025°02'816.9
2017-Sep-21 04:30N 37°41' W 024°52'917.2
2017-Sep-21 04:00N 37°41' W 024°41'816.4
2017-Sep-21 03:30N 37°42' W 024°31'815.8
2017-Sep-21 03:00N 37°42' W 024°21'816.2
2017-Sep-21 02:30N 37°43' W 024°11'816.3
2017-Sep-21 02:00N 37°43' W 024°00'816.3
2017-Sep-21 01:30N 37°44' W 023°50'918.1
2017-Sep-21 01:00N 37°45' W 023°39'41820.8
2017-Sep-20 04:55N 38°12' W 014°49'921.3
2017-Sep-20 04:31N 38°13' W 014°38'3821.3
2017-Sep-20 02:42N 38°16' W 013°49'421.1
2017-Sep-20 02:30N 38°16' W 013°44'1221.1
2017-Sep-20 01:58N 38°17' W 013°29'1021.1
2017-Sep-20 01:31N 38°17' W 013°17'3621.2
2017-Sep-19 23:48N 38°20' W 012°31'2920.9
2017-Sep-19 22:24N 38°22' W 011°54'920.9
2017-Sep-19 21:57N 38°22' W 011°42'1121.2
2017-Sep-19 21:25N 38°23' W 011°28'1720.8
2017-Sep-19 20:37N 38°24' W 011°06'620.7
2017-Sep-19 20:21N 38°25' W 010°59'720.8
2017-Sep-19 20:01N 38°25' W 010°50'1120.6
2017-Sep-19 19:28N 38°26' W 010°36'1020.6
2017-Sep-19 19:01N 38°27' W 010°24'1020.9
2017-Sep-19 18:31N 38°30' W 010°11'1020.7
2017-Sep-19 18:01N 38°30' W 009°58'1020.7
2017-Sep-19 17:30N 38°32' W 009°45'1121.3
2017-Sep-19 17:01N 38°35' W 009°32'918.7
2017-Sep-19 16:31N 38°38' W 009°21'712.7
2017-Sep-19 15:59N 38°41' W 009°13'4 8.6
2017-Sep-19 15:30N 38°42' W 009°08'1 1.1
2017-Sep-19 15:01N 38°43' W 009°08'0 0.0
2017-Sep-19 14:31N 38°43' W 009°08'0 0.0
2017-Sep-19 13:58N 38°43' W 009°08'0 0.0
2017-Sep-19 13:31N 38°43' W 009°08'0 0.0
2017-Sep-19 13:01N 38°43' W 009°08'0 0.0
2017-Sep-19 12:28N 38°43' W 009°08'0 0.0
2017-Sep-19 11:58N 38°43' W 009°08'0 0.0
2017-Sep-19 11:31N 38°43' W 009°08'0 0.0
2017-Sep-19 11:01N 38°43' W 009°08'0 0.0
2017-Sep-19 10:31N 38°43' W 009°08'0 0.0
2017-Sep-19 10:01N 38°43' W 009°08'0 0.0
2017-Sep-19 09:28N 38°43' W 009°08'0 0.1
2017-Sep-19 09:01N 38°43' W 009°08'0 0.0
2017-Sep-19 08:28N 38°43' W 009°08'0 0.0
2017-Sep-19 08:01N 38°43' W 009°08'0 0.0
2017-Sep-19 07:30N 38°43' W 009°08'1 2.3
2017-Sep-19 07:00N 38°42' W 009°09'3 6.3
2017-Sep-19 06:30N 38°41' W 009°13'4 7.5
2017-Sep-19 06:01N 38°41' W 009°17'713.2
2017-Sep-19 05:30N 38°36' W 009°23'3 6.9
2017-Sep-19 05:00N 38°33' W 009°24'612.6
2017-Sep-19 04:30N 38°26' W 009°24'816.7
2017-Sep-19 04:00N 38°18' W 009°23'917.3
2017-Sep-19 03:30N 38°09' W 009°23'917.1
2017-Sep-19 03:01N 38°01' W 009°23'917.2
2017-Sep-19 02:30N 37°52' W 009°23'917.3
2017-Sep-19 02:00N 37°44' W 009°23'917.2
2017-Sep-19 01:31N 37°35' W 009°23'917.1
2017-Sep-19 01:00N 37°26' W 009°22'917.7
2017-Sep-19 00:30N 37°17' W 009°22'1020.7
2017-Sep-19 00:00N 37°07' W 009°22'1120.4
2017-Sep-18 23:27N 36°56' W 009°20'920.1
2017-Sep-18 23:00N 36°48' W 009°15'1220.0
2017-Sep-18 22:23N 36°43' W 009°01'820.4
2017-Sep-18 22:00N 36°42' W 008°51'1020.3
2017-Sep-18 21:30N 36°42' W 008°39'1020.5
2017-Sep-18 21:00N 36°41' W 008°26'1020.4
2017-Sep-18 20:30N 36°40' W 008°14'1020.2
2017-Sep-18 20:00N 36°40' W 008°01'1020.0
2017-Sep-18 19:30N 36°40' W 007°48'5119.8
2017-Sep-18 16:55N 36°36' W 006°45'69 3.4
2017-Sep-17 20:25N 35°57' W 005°34'615.2
2017-Sep-17 20:00N 35°59' W 005°27'5 9.1
2017-Sep-17 19:30N 36°00' W 005°22'4 7.9
2017-Sep-17 19:00N 36°01' W 005°17'21618.9
2017-Sep-17 07:36N 37°06' W 001°01'421.2
2017-Sep-17 07:25N 37°09' W 000°57'921.3
2017-Sep-17 06:59N 37°14' W 000°47'1021.4
2017-Sep-17 06:30N 37°20' W 000°37'1121.5
2017-Sep-17 06:00N 37°26' W 000°26'1020.9
2017-Sep-17 05:30N 37°34' W 000°17'6621.0
2017-Sep-17 02:22N 38°29' E 000°30'820.7
2017-Sep-17 01:59N 38°35' E 000°35'3321.0
2017-Sep-17 00:24N 39°06' E 000°51'2521.1
2017-Sep-16 23:13N 39°29' E 001°05'621.2
2017-Sep-16 22:57N 39°34' E 001°08'1021.2
2017-Sep-16 22:30N 39°42' E 001°13'1121.1
2017-Sep-16 22:00N 39°52' E 001°19'1020.8
2017-Sep-16 21:30N 40°01' E 001°25'1020.7
2017-Sep-16 21:00N 40°10' E 001°31'1020.7
2017-Sep-16 20:30N 40°20' E 001°37'1020.5
2017-Sep-16 20:00N 40°29' E 001°42'1020.5
2017-Sep-16 19:30N 40°38' E 001°48'1020.6
2017-Sep-16 19:00N 40°48' E 001°54'1020.7
2017-Sep-16 18:30N 40°57' E 001°59'1020.4
2017-Sep-16 18:00N 41°06' E 002°05'1118.3
2017-Sep-16 17:24N 41°17' E 002°11'2 0.1
2017-Sep-16 02:38N 41°19' E 002°10'1 8.4
2017-Sep-16 02:30N 41°18' E 002°11'1012.1
2017-Sep-16 01:43N 41°12' E 002°22'12917.7
2017-Sep-15 18:26N 42°39' E 004°30'921.8
2017-Sep-15 18:00N 42°46' E 004°38'1121.4
2017-Sep-15 17:31N 42°53' E 004°48'1121.4
2017-Sep-15 17:00N 43°02' E 004°57'1121.6
2017-Sep-15 16:31N 43°10' E 005°06'1019.4
2017-Sep-15 16:01N 43°18' E 005°13'510.8
2017-Sep-15 15:30N 43°21' E 005°20'0 0.1
2017-Sep-15 14:46N 43°21' E 005°20'0 0.0
2017-Sep-15 14:07N 43°21' E 005°20'0 0.0
2017-Sep-15 13:46N 43°21' E 005°20'0 0.0
2017-Sep-15 13:22N 43°21' E 005°20'0 0.0
2017-Sep-15 12:52N 43°21' E 005°20'0 0.0
2017-Sep-15 12:04N 43°21' E 005°20'0 0.0
2017-Sep-15 11:49N 43°21' E 005°20'0 0.0
2017-Sep-15 11:22N 43°21' E 005°20'0 0.0
2017-Sep-15 10:52N 43°21' E 005°20'0 0.0
2017-Sep-15 10:22N 43°21' E 005°20'0 0.0
2017-Sep-15 09:55N 43°21' E 005°20'0 0.0
2017-Sep-15 09:25N 43°21' E 005°20'0 0.0
2017-Sep-15 08:55N 43°21' E 005°20'0 0.0
2017-Sep-15 08:25N 43°21' E 005°20'0 0.0
2017-Sep-15 07:55N 43°21' E 005°20'0 0.0
2017-Sep-15 07:28N 43°21' E 005°20'0 0.0
2017-Sep-15 06:43N 43°21' E 005°20'0 0.0
2017-Sep-15 06:13N 43°21' E 005°20'0 0.0
2017-Sep-15 05:58N 43°21' E 005°20'0 0.0
2017-Sep-15 05:28N 43°21' E 005°20'0 0.0
2017-Sep-15 05:00N 43°21' E 005°20'1 2.1
2017-Sep-15 04:31N 43°21' E 005°19'4 7.5
2017-Sep-15 04:00N 43°19' E 005°15'3 6.8
2017-Sep-15 03:30N 43°16' E 005°11'4 7.5
2017-Sep-15 03:00N 43°13' E 005°10'4 7.5
2017-Sep-15 02:30N 43°09' E 005°10'4 7.7
2017-Sep-15 02:00N 43°05' E 005°10'4 8.0
2017-Sep-15 01:30N 43°01' E 005°11'4 7.9
2017-Sep-15 01:00N 42°58' E 005°14'5 9.0
2017-Sep-15 00:31N 42°56' E 005°19'5 9.0
2017-Sep-15 00:00N 42°53' E 005°24'5 9.1
2017-Sep-14 23:30N 42°51' E 005°30'5 9.1
2017-Sep-14 23:00N 42°49' E 005°35'5 9.0
2017-Sep-14 22:30N 42°47' E 005°41'4 8.7
2017-Sep-14 22:01N 42°46' E 005°46'7 7.0
2017-Sep-14 21:00N 42°44' E 005°56'8 3.5
2017-Sep-14 18:48N 42°43' E 006°06'2 7.7
2017-Sep-14 18:30N 42°44' E 006°09'4 7.8
2017-Sep-14 18:00N 42°45' E 006°14'4 7.3
2017-Sep-14 17:30N 42°45' E 006°19'4 7.2
2017-Sep-14 17:00N 42°45' E 006°24'4 7.4
2017-Sep-14 16:27N 42°46' E 006°30'25 7.4
2017-Sep-14 13:05N 42°52' E 007°02'1 7.2
2017-Sep-14 12:58N 42°52' E 007°03'3 7.2
2017-Sep-14 12:30N 42°53' E 007°07'4 7.3
2017-Sep-14 11:59N 42°55' E 007°12'4 7.2
2017-Sep-14 11:29N 42°56' E 007°17'4 7.3
2017-Sep-14 10:58N 42°57' E 007°22'3 7.3
2017-Sep-14 10:30N 42°58' E 007°26'4 7.2
2017-Sep-14 10:00N 42°59' E 007°31'4 7.2
2017-Sep-14 09:29N 43°00' E 007°36'52 7.5
2017-Sep-14 02:31N 43°16' E 008°44'0 7.4
2017-Sep-14 02:30N 43°16' E 008°44'4 7.5
2017-Sep-14 01:59N 43°17' E 008°49'4 7.4
2017-Sep-14 01:30N 43°18' E 008°54'4 7.6
2017-Sep-14 01:00N 43°20' E 008°59'4 8.5
2017-Sep-14 00:30N 43°21' E 009°04'4 8.2
2017-Sep-14 00:00N 43°22' E 009°10'4 7.6
2017-Sep-13 23:30N 43°23' E 009°15'4 7.5
2017-Sep-13 23:00N 43°24' E 009°20'4 7.2
2017-Sep-13 22:30N 43°25' E 009°24'4 8.8
2017-Sep-13 22:00N 43°26' E 009°30'5 9.4
2017-Sep-13 21:30N 43°28' E 009°36'5 9.4
2017-Sep-13 21:00N 43°29' E 009°42'5 9.6
2017-Sep-13 20:30N 43°31' E 009°49'5 9.7
2017-Sep-13 20:00N 43°32' E 009°55'5 9.4
2017-Sep-13 19:30N 43°31' E 010°02'5 9.7
2017-Sep-13 19:00N 43°30' E 010°08'611.3
2017-Sep-13 18:30N 43°32' E 010°15'2 4.9
2017-Sep-13 18:00N 43°33' E 010°18'0 0.0
2017-Sep-13 17:27N 43°33' E 010°18'0 0.0
2017-Sep-13 16:57N 43°33' E 010°18'0 0.0
2017-Sep-13 16:30N 43°33' E 010°18'0 0.0
2017-Sep-13 15:57N 43°33' E 010°18'0 0.0
2017-Sep-13 15:30N 43°33' E 010°18'0 0.0
2017-Sep-13 15:00N 43°33' E 010°18'0 0.0
2017-Sep-13 14:30N 43°33' E 010°18'0 0.0
2017-Sep-13 14:00N 43°33' E 010°18'0 0.0
2017-Sep-13 13:30N 43°33' E 010°18'0 0.0
2017-Sep-13 13:00N 43°33' E 010°18'0 0.0
2017-Sep-13 12:30N 43°33' E 010°18'0 0.0
2017-Sep-13 12:00N 43°33' E 010°18'0 0.0
2017-Sep-13 11:30N 43°33' E 010°18'0 0.0
2017-Sep-13 10:54N 43°33' E 010°18'0 0.0
2017-Sep-13 10:30N 43°33' E 010°18'0 0.0
2017-Sep-13 10:00N 43°33' E 010°18'0 0.0
2017-Sep-13 09:30N 43°33' E 010°18'0 0.0
2017-Sep-13 09:00N 43°33' E 010°18'0 0.0
2017-Sep-13 08:30N 43°33' E 010°18'0 0.0
2017-Sep-13 08:00N 43°33' E 010°18'0 0.0
2017-Sep-13 07:30N 43°33' E 010°18'0 0.0
2017-Sep-13 07:00N 43°33' E 010°18'0 0.0
2017-Sep-13 06:24N 43°33' E 010°18'0 0.0
2017-Sep-13 06:00N 43°33' E 010°18'0 0.0
2017-Sep-13 05:30N 43°33' E 010°18'0 0.0
2017-Sep-13 05:00N 43°33' E 010°18'0 0.1
2017-Sep-13 04:27N 43°33' E 010°18'1 1.9
2017-Sep-13 04:00N 43°33' E 010°17'4 8.9
2017-Sep-13 03:31N 43°29' E 010°13'815.3
2017-Sep-13 03:01N 43°22' E 010°11'815.3
2017-Sep-13 02:31N 43°14' E 010°08'815.3
2017-Sep-13 02:01N 43°07' E 010°05'815.2
2017-Sep-13 01:30N 42°60' E 010°02'5713.8
2017-Sep-12 21:24N 42°04' E 010°17'  

Dump ship's entire track history